Time;durP1;ratioP1;P1;durP2;ratioP2;P2;SDS_P1;SDS_P2;PMS_P1;PMS_P2;Temp;Humidity;BMP_temperature;BMP_pressure;BME280_temperature;BME280_humidity;BME280_pressure;Samples;Min_cycle;Max_cycle;Signal;HPM_P1;HPM_P2
2024/01/04 00:02:13;;;;;;;0.57;0.47;;;10.00;99.90;;;;;;5054894;28;20025;-45
2024/01/04 00:04:41;;;;;;;0.40;0.40;;;10.00;99.90;;;;;;5052896;28;20106;-50
2024/01/04 00:07:08;;;;;;;1.10;0.43;;;10.00;99.90;;;;;;5054455;28;20017;-45
2024/01/04 00:09:33;;;;;;;0.85;0.50;;;10.00;99.90;;;;;;5054302;28;20025;-43
2024/01/04 00:11:59;;;;;;;3.72;0.50;;;10.00;99.90;;;;;;5052844;28;20379;-43
2024/01/04 00:14:24;;;;;;;5.40;0.50;;;10.00;99.90;;;;;;5067507;23;20045;-51
2024/01/04 00:16:50;;;;;;;0.40;0.30;;;10.00;99.90;;;;;;5017159;28;20025;-53
2024/01/04 00:19:15;;;;;;;0.40;0.40;;;10.00;99.90;;;;;;5034980;28;20034;-50
2024/01/04 00:21:41;;;;;;;1.23;0.40;;;10.00;99.90;;;;;;5017357;28;20029;-54
2024/01/04 00:24:07;;;;;;;1.10;0.57;;;9.90;99.90;;;;;;5013046;28;20018;-48
2024/01/04 00:26:32;;;;;;;1.23;0.40;;;10.00;99.90;;;;;;5014660;28;20106;-50
2024/01/04 00:28:58;;;;;;;1.48;0.40;;;10.00;99.90;;;;;;5014633;28;20375;-51
2024/01/04 00:31:24;;;;;;;0.50;0.50;;;9.90;99.90;;;;;;4996679;28;20034;-48
2024/01/04 00:33:50;;;;;;;1.45;0.70;;;10.00;99.90;;;;;;5014361;28;20029;-51
2024/01/04 00:36:15;;;;;;;0.60;0.35;;;10.00;99.90;;;;;;5014521;28;20030;-51
2024/01/04 00:38:41;;;;;;;2.42;0.45;;;9.90;99.90;;;;;;5014154;28;20077;-49
2024/01/04 00:41:06;;;;;;;0.95;0.40;;;10.00;99.90;;;;;;4996604;28;20040;-49
2024/01/04 00:43:32;;;;;;;1.48;0.20;;;9.90;99.90;;;;;;5014059;28;20033;-51
2024/01/04 00:45:58;;;;;;;1.00;1.00;;;9.90;99.90;;;;;;4996606;28;20025;-51
2024/01/04 00:48:24;;;;;;;2.78;0.47;;;9.90;99.90;;;;;;4980478;28;20096;-49
2024/01/04 00:50:49;;;;;;;0.30;0.30;;;9.90;99.90;;;;;;5013662;28;20025;-48
2024/01/04 00:53:15;;;;;;;0.43;0.30;;;9.80;99.90;;;;;;5013370;28;20030;-46
2024/01/04 00:55:40;;;;;;;1.05;0.40;;;9.80;99.90;;;;;;5014164;28;20029;-50
2024/01/04 00:58:06;;;;;;;2.45;0.50;;;9.80;99.90;;;;;;4996303;28;20504;-49
2024/01/04 01:00:32;;;;;;;1.63;0.47;;;9.80;99.90;;;;;;5013745;28;20072;-47
2024/01/04 01:02:58;;;;;;;1.35;0.40;;;9.80;99.90;;;;;;5013618;28;20084;-46
2024/01/04 01:05:23;;;;;;;0.75;0.30;;;9.80;99.90;;;;;;5013844;28;20025;-46
2024/01/04 01:07:49;;;;;;;0.60;0.40;;;9.80;99.90;;;;;;4996375;28;20021;-54
2024/01/04 01:10:14;;;;;;;1.13;0.45;;;9.70;99.90;;;;;;4996064;28;20109;-54
2024/01/04 01:12:40;;;;;;;0.40;0.40;;;9.80;99.90;;;;;;5013588;28;20018;-48
2024/01/04 01:15:06;;;;;;;1.38;0.38;;;9.80;99.90;;;;;;5013540;28;20033;-49
2024/01/04 01:17:32;;;;;;;0.68;0.55;;;9.80;99.90;;;;;;4996141;28;20053;-53
2024/01/04 01:19:58;;;;;;;1.27;0.30;;;9.80;99.90;;;;;;5013437;28;20026;-48
2024/01/04 01:22:24;;;;;;;1.02;0.50;;;9.80;99.90;;;;;;5013374;28;20551;-50
2024/01/04 01:24:50;;;;;;;0.70;0.45;;;9.80;99.90;;;;;;5013026;28;20029;-48
2024/01/04 01:27:15;;;;;;;1.95;0.40;;;9.80;99.90;;;;;;5013329;28;20037;-49
2024/01/04 01:29:41;;;;;;;1.95;0.70;;;9.80;99.90;;;;;;5013009;28;20041;-49
2024/01/04 01:32:06;;;;;;;1.98;0.52;;;9.80;99.90;;;;;;5013015;28;20144;-48
2024/01/04 01:34:32;;;;;;;1.50;0.40;;;9.90;99.90;;;;;;4995149;28;20025;-47
2024/01/04 01:36:58;;;;;;;0.65;0.50;;;9.80;99.90;;;;;;4995347;28;20030;-47
2024/01/04 01:39:23;;;;;;;0.90;0.43;;;9.80;99.90;;;;;;5013075;28;20031;-51
2024/01/04 01:41:51;;;;;;;0.47;0.45;;;9.90;99.90;;;;;;5012681;28;20334;-49
2024/01/04 01:44:17;;;;;;;0.40;0.40;;;9.90;99.90;;;;;;5012366;28;20481;-51
2024/01/04 01:46:43;;;;;;;0.30;0.30;;;10.00;99.90;;;;;;5012872;28;20037;-49
2024/01/04 01:49:09;;;;;;;0.77;0.40;;;10.00;99.90;;;;;;4994989;28;20105;-49
2024/01/04 01:51:34;;;;;;;0.65;0.50;;;9.90;99.90;;;;;;4994884;28;20112;-50
2024/01/04 01:54:00;;;;;;;0.88;0.40;;;9.90;99.90;;;;;;4994620;28;20026;-48
2024/01/04 01:56:26;;;;;;;1.45;0.43;;;10.00;99.90;;;;;;5012699;28;20357;-50
2024/01/04 01:58:51;;;;;;;0.50;0.50;;;10.00;99.90;;;;;;4994976;28;20026;-48
2024/01/04 02:01:17;;;;;;;4.00;0.40;;;10.00;99.90;;;;;;5012688;28;20034;-48
2024/01/04 02:03:43;;;;;;;2.80;0.68;;;10.00;99.90;;;;;;5012080;28;20532;-47
2024/01/04 02:06:08;;;;;;;4.82;1.33;;;9.90;99.90;;;;;;5012770;28;20382;-51
2024/01/04 02:08:34;;;;;;;3.85;0.80;;;10.00;99.90;;;;;;5012400;28;20037;-51
2024/01/04 02:10:59;;;;;;;0.68;0.43;;;9.90;99.90;;;;;;5012638;28;20080;-51
2024/01/04 02:13:25;;;;;;;0.40;0.40;;;9.90;99.90;;;;;;5012129;28;20441;-48
2024/01/04 02:15:51;;;;;;;2.60;0.63;;;9.90;99.90;;;;;;5012187;28;20046;-48
2024/01/04 02:18:16;;;;;;;2.25;1.17;;;9.90;99.90;;;;;;5012200;28;20026;-48
2024/01/04 02:20:42;;;;;;;2.78;0.77;;;9.80;99.90;;;;;;5012535;28;20022;-49
2024/01/04 02:23:15;;;;;;;0.40;0.40;;;9.80;99.90;;;;;;5011824;28;20029;-50
2024/01/04 02:25:40;;;;;;;3.10;0.57;;;9.80;99.90;;;;;;5012242;28;20018;-49
2024/01/04 02:28:06;;;;;;;0.95;0.65;;;9.70;99.90;;;;;;5012382;28;20234;-51
2024/01/04 02:30:32;;;;;;;1.63;0.45;;;9.70;99.90;;;;;;5012127;28;20537;-50
2024/01/04 02:32:58;;;;;;;1.90;0.55;;;9.70;99.90;;;;;;5012229;28;20112;-51
2024/01/04 02:35:23;;;;;;;2.05;0.75;;;9.70;99.90;;;;;;5012106;28;20030;-53
2024/01/04 02:37:49;;;;;;;1.80;0.73;;;9.60;99.90;;;;;;5011921;28;20093;-49
2024/01/04 02:40:14;;;;;;;0.43;0.40;;;9.60;99.90;;;;;;5011951;28;20029;-52
2024/01/04 02:42:40;;;;;;;1.58;0.50;;;9.60;99.90;;;;;;4994113;28;20101;-50
2024/01/04 02:45:06;;;;;;;2.08;0.60;;;9.60;99.90;;;;;;4994443;28;20394;-48
2024/01/04 02:47:31;;;;;;;1.73;0.75;;;9.60;99.90;;;;;;5012032;28;20033;-47
2024/01/04 02:49:57;;;;;;;0.32;0.32;;;9.60;99.90;;;;;;5011935;28;20084;-48
2024/01/04 02:52:22;;;;;;;1.10;0.50;;;9.60;99.90;;;;;;5011805;28;20033;-51
2024/01/04 02:54:48;;;;;;;0.80;0.30;;;9.60;99.90;;;;;;5011565;28;20067;-47
2024/01/04 02:57:13;;;;;;;1.48;0.40;;;9.60;99.90;;;;;;5011986;28;20084;-47
2024/01/04 02:59:39;;;;;;;2.55;0.47;;;9.60;99.90;;;;;;4994107;28;20079;-52
2024/01/04 03:02:05;;;;;;;0.30;0.30;;;9.70;99.90;;;;;;4993974;28;20026;-50
2024/01/04 03:04:30;;;;;;;0.30;0.30;;;9.70;99.90;;;;;;5011370;28;20064;-51
2024/01/04 03:06:56;;;;;;;0.57;0.32;;;9.70;99.90;;;;;;5011778;28;20093;-52
2024/01/04 03:09:21;;;;;;;0.38;0.38;;;9.70;99.90;;;;;;5011615;28;20393;-49
2024/01/04 03:11:47;;;;;;;0.45;0.30;;;9.70;99.90;;;;;;4993781;28;20030;-49
2024/01/04 03:14:13;;;;;;;0.38;0.30;;;9.80;99.90;;;;;;5011200;28;20045;-52
2024/01/04 03:16:38;;;;;;;0.38;0.32;;;9.80;99.90;;;;;;5015692;28;20056;-53
2024/01/04 03:19:04;;;;;;;0.30;0.20;;;9.80;99.90;;;;;;5015580;28;20044;-47
2024/01/04 03:21:29;;;;;;;1.63;0.25;;;9.80;99.90;;;;;;5015384;28;20556;-51
2024/01/04 03:23:55;;;;;;;0.63;0.40;;;9.80;99.90;;;;;;5015132;28;20022;-46
2024/01/04 03:26:20;;;;;;;1.27;0.30;;;9.80;99.90;;;;;;5015352;28;20031;-48
2024/01/04 03:28:46;;;;;;;0.20;0.20;;;9.90;99.90;;;;;;5015375;28;20030;-50
2024/01/04 03:31:13;;;;;;;2.17;0.47;;;9.90;99.90;;;;;;4997644;28;20409;-47
2024/01/04 03:33:38;;;;;;;0.20;0.20;;;9.80;99.90;;;;;;5014998;28;20022;-49
2024/01/04 03:36:05;;;;;;;1.35;0.40;;;9.90;99.90;;;;;;5015244;28;20034;-49
2024/01/04 03:38:31;;;;;;;1.45;0.85;;;9.90;99.90;;;;;;5015181;28;20444;-47
2024/01/04 03:40:56;;;;;;;0.90;0.35;;;9.90;99.90;;;;;;5015133;28;20022;-49
2024/01/04 03:43:22;;;;;;;3.42;0.40;;;9.90;99.90;;;;;;5014765;28;20037;-52
2024/01/04 03:45:47;;;;;;;0.75;0.30;;;9.90;99.90;;;;;;5014896;28;20370;-46
2024/01/04 03:48:12;;;;;;;0.20;0.20;;;9.90;99.90;;;;;;5014977;28;20093;-47
2024/01/04 03:50:38;;;;;;;0.63;0.30;;;9.90;99.90;;;;;;5014843;28;20036;-51
2024/01/04 03:53:04;;;;;;;1.70;0.50;;;9.90;99.90;;;;;;5014832;28;20033;-47
2024/01/04 03:55:29;;;;;;;0.80;0.28;;;10.00;99.90;;;;;;5015228;28;20037;-49
2024/01/04 03:57:55;;;;;;;1.23;0.43;;;10.00;99.90;;;;;;4997128;28;20112;-48
2024/01/04 04:00:20;;;;;;;1.08;0.30;;;9.90;99.90;;;;;;5014668;28;20025;-51
2024/01/04 04:02:46;;;;;;;0.32;0.30;;;10.00;99.90;;;;;;5014460;28;20029;-47
2024/01/04 04:05:11;;;;;;;0.65;0.40;;;10.00;99.90;;;;;;5014706;28;20485;-48
2024/01/04 04:07:37;;;;;;;0.75;0.75;;;10.00;99.90;;;;;;4997002;28;20351;-48
2024/01/04 04:10:03;;;;;;;0.55;0.32;;;10.00;99.90;;;;;;4996988;28;20022;-47
2024/01/04 04:12:28;;;;;;;1.50;0.50;;;9.90;99.90;;;;;;4996976;28;20033;-49
2024/01/04 04:14:54;;;;;;;0.30;0.30;;;9.90;99.90;;;;;;5014020;28;20493;-47
2024/01/04 04:17:24;;;;;;;1.00;0.30;;;9.90;99.90;;;;;;4996997;28;20030;-47
2024/01/04 04:19:49;;;;;;;1.38;0.50;;;9.90;99.90;;;;;;5014344;28;20025;-50
2024/01/04 04:22:15;;;;;;;0.20;0.20;;;9.90;99.90;;;;;;5014383;28;20018;-46
2024/01/04 04:24:40;;;;;;;0.63;0.32;;;9.80;99.90;;;;;;5014071;28;20325;-50
2024/01/04 04:27:06;;;;;;;0.20;0.20;;;9.80;99.90;;;;;;5012950;28;20038;-49
2024/01/04 04:29:31;;;;;;;0.30;0.30;;;9.80;99.90;;;;;;5013808;28;20061;-50
2024/01/04 04:31:57;;;;;;;0.40;0.40;;;9.70;99.90;;;;;;4996672;28;20033;-48
2024/01/04 04:34:22;;;;;;;0.90;0.30;;;9.70;99.90;;;;;;5013960;28;20112;-47
2024/01/04 04:36:48;;;;;;;1.13;0.70;;;9.70;99.90;;;;;;5014119;28;20032;-50
2024/01/04 04:39:14;;;;;;;0.50;0.50;;;9.70;99.90;;;;;;5014058;28;20084;-48
2024/01/04 04:41:40;;;;;;;2.20;0.30;;;9.70;99.90;;;;;;5013860;28;20573;-50
2024/01/04 04:44:05;;;;;;;0.30;0.30;;;9.70;99.90;;;;;;5014004;28;20120;-50
2024/01/04 04:46:31;;;;;;;0.40;0.40;;;9.60;99.90;;;;;;5014060;28;20068;-48
2024/01/04 04:48:58;;;;;;;2.05;0.30;;;9.70;99.90;;;;;;5013777;28;20029;-48
2024/01/04 04:51:25;;;;;;;1.38;0.60;;;9.70;99.90;;;;;;5013725;28;20104;-46
2024/01/04 04:53:53;;;;;;;1.35;0.95;;;9.80;99.90;;;;;;5013415;28;20052;-50
2024/01/04 04:56:19;;;;;;;0.47;0.40;;;9.80;99.90;;;;;;5013603;28;20401;-47
2024/01/04 04:58:44;;;;;;;1.55;0.40;;;9.80;99.90;;;;;;5013530;28;20030;-45
2024/01/04 05:01:10;;;;;;;0.73;0.43;;;9.80;99.90;;;;;;4995874;28;20371;-47
2024/01/04 05:03:36;;;;;;;2.75;0.80;;;9.80;99.90;;;;;;4995637;28;20025;-46
2024/01/04 05:06:02;;;;;;;0.40;0.30;;;9.80;99.90;;;;;;5013453;28;20014;-46
2024/01/04 05:08:28;;;;;;;0.40;0.40;;;9.80;99.90;;;;;;5013617;28;20109;-48
2024/01/04 05:10:54;;;;;;;0.82;0.80;;;9.80;99.90;;;;;;5013256;28;20030;-49
2024/01/04 05:13:19;;;;;;;0.98;0.40;;;9.90;99.90;;;;;;5013057;28;20049;-49
2024/01/04 05:15:45;;;;;;;0.55;0.50;;;9.90;99.90;;;;;;5013224;28;20033;-48
2024/01/04 05:18:10;;;;;;;0.85;0.30;;;9.90;99.90;;;;;;5013256;28;20497;-51
2024/01/04 05:20:36;;;;;;;0.50;0.50;;;9.90;99.90;;;;;;5013128;28;20018;-48
2024/01/04 05:23:01;;;;;;;0.85;0.22;;;9.90;99.90;;;;;;4995311;28;20095;-47
2024/01/04 05:25:27;;;;;;;4.00;0.65;;;9.80;99.90;;;;;;5013060;28;20018;-46
2024/01/04 05:27:53;;;;;;;1.55;0.77;;;9.80;99.90;;;;;;5013066;28;20564;-46
2024/01/04 05:30:18;;;;;;;1.25;0.57;;;9.80;99.90;;;;;;5013026;28;20048;-47
2024/01/04 05:32:44;;;;;;;1.13;0.70;;;9.80;99.90;;;;;;5012920;28;20022;-51
2024/01/04 05:35:11;;;;;;;1.65;1.13;;;9.80;99.90;;;;;;5012906;28;20088;-47
2024/01/04 05:37:37;;;;;;;1.75;0.85;;;9.80;99.90;;;;;;5012624;28;20101;-45
2024/01/04 05:40:03;;;;;;;0.50;0.43;;;9.80;99.90;;;;;;5012619;28;20461;-49
2024/01/04 05:42:29;;;;;;;2.28;0.90;;;9.90;99.90;;;;;;5012776;28;20037;-48
2024/01/04 05:44:54;;;;;;;1.42;0.52;;;9.80;99.90;;;;;;5012447;28;20017;-48
2024/01/04 05:47:20;;;;;;;1.95;0.50;;;9.80;99.90;;;;;;4995099;28;20025;-48
2024/01/04 05:49:45;;;;;;;1.98;0.43;;;9.80;99.90;;;;;;5012827;28;20072;-49
2024/01/04 05:52:12;;;;;;;0.65;0.65;;;9.80;99.90;;;;;;5012646;28;20091;-46
2024/01/04 05:54:38;;;;;;;2.15;0.40;;;9.80;99.90;;;;;;5012505;28;20018;-50
2024/01/04 05:57:04;;;;;;;1.85;0.40;;;9.80;99.90;;;;;;5012609;28;20030;-47
2024/01/04 05:59:29;;;;;;;0.90;0.50;;;9.80;99.90;;;;;;4994853;28;20112;-50
2024/01/04 06:01:55;;;;;;;1.20;0.47;;;9.80;99.90;;;;;;5012558;28;20137;-47
2024/01/04 06:04:20;;;;;;;1.42;0.50;;;9.80;99.90;;;;;;4994565;28;20489;-51
2024/01/04 06:06:47;;;;;;;1.00;0.40;;;9.80;99.90;;;;;;5012437;28;20037;-47
2024/01/04 06:09:13;;;;;;;0.47;0.47;;;9.80;99.90;;;;;;5012417;28;20076;-49
2024/01/04 06:11:38;;;;;;;3.15;0.70;;;9.90;99.90;;;;;;5012279;28;20021;-48
2024/01/04 06:16:29;;;;;;;3.40;0.40;;;9.90;99.90;;;;;;5072521;23;20073;-51
2024/01/04 06:18:58;;;;;;;0.82;0.43;;;9.90;99.90;;;;;;5053709;28;20507;-54
2024/01/04 06:21:24;;;;;;;0.55;0.30;;;9.90;99.90;;;;;;5053595;28;20048;-53
2024/01/04 06:23:51;;;;;;;2.65;0.60;;;9.90;99.90;;;;;;5035839;28;20033;-52
2024/01/04 06:26:20;;;;;;;0.90;0.40;;;9.90;99.90;;;;;;5052627;28;20021;-47
2024/01/04 06:28:46;;;;;;;3.00;0.65;;;9.90;99.90;;;;;;5052695;28;20028;-49
2024/01/04 06:31:12;;;;;;;1.08;0.47;;;9.80;99.90;;;;;;5052374;28;20037;-51
2024/01/04 06:33:37;;;;;;;0.30;0.30;;;9.90;99.90;;;;;;5052274;28;20075;-48
2024/01/04 06:36:03;;;;;;;1.10;0.50;;;9.90;99.90;;;;;;5053008;28;20029;-50
2024/01/04 06:38:36;;;;;;;1.15;0.60;;;9.90;99.90;;;;;;5052804;28;20025;-49
2024/01/04 06:41:03;;;;;;;2.50;0.40;;;10.00;99.90;;;;;;5052728;28;20025;-52
2024/01/04 06:43:30;;;;;;;1.38;0.60;;;9.90;99.90;;;;;;5052462;28;20025;-49
2024/01/04 06:45:57;;;;;;;1.13;0.50;;;9.90;99.90;;;;;;5052472;28;20091;-49
2024/01/04 06:48:23;;;;;;;0.60;0.60;;;9.90;99.90;;;;;;5052586;28;20025;-50
2024/01/04 06:50:49;;;;;;;1.08;0.70;;;9.90;99.90;;;;;;5052749;28;20032;-51
2024/01/04 06:53:15;;;;;;;0.40;0.40;;;9.90;99.90;;;;;;5052416;28;20029;-55
2024/01/04 06:55:41;;;;;;;1.35;0.40;;;9.90;99.90;;;;;;5052330;28;20027;-52
2024/01/04 06:58:08;;;;;;;0.75;0.47;;;9.90;99.90;;;;;;5052495;28;20035;-53
2024/01/04 07:00:34;;;;;;;0.30;0.30;;;9.90;99.90;;;;;;5052606;28;20029;-49
2024/01/04 07:02:59;;;;;;;1.05;0.43;;;9.90;99.90;;;;;;5052296;28;20028;-54
2024/01/04 07:05:28;;;;;;;2.05;0.38;;;9.80;99.90;;;;;;5052753;28;20111;-52
2024/01/04 07:07:53;;;;;;;1.27;0.63;;;9.90;99.90;;;;;;5051904;28;20067;-52
2024/01/04 07:10:19;;;;;;;1.23;0.50;;;9.90;99.90;;;;;;5051748;28;20021;-51
2024/01/04 07:12:46;;;;;;;1.52;0.50;;;9.90;99.90;;;;;;5052297;28;20064;-49
2024/01/04 07:15:12;;;;;;;0.88;0.40;;;9.90;99.90;;;;;;5051974;28;20029;-53
2024/01/04 07:17:38;;;;;;;2.20;0.50;;;9.90;99.90;;;;;;5034796;28;20032;-52
2024/01/04 07:20:04;;;;;;;0.52;0.28;;;9.90;99.90;;;;;;5052716;28;20114;-53
2024/01/04 07:22:30;;;;;;;0.55;0.20;;;9.90;99.90;;;;;;5052447;28;20013;-51
2024/01/04 07:24:56;;;;;;;2.17;0.57;;;9.80;99.90;;;;;;5052859;28;20047;-53
2024/01/04 07:27:22;;;;;;;0.20;0.20;;;9.80;99.90;;;;;;5052234;28;20568;-50
2024/01/04 07:29:48;;;;;;;0.47;0.30;;;9.90;99.90;;;;;;5052928;28;20111;-49
2024/01/04 07:32:18;;;;;;;0.30;0.30;;;9.90;99.90;;;;;;5052852;28;20488;-48
2024/01/04 07:34:46;;;;;;;0.55;0.50;;;9.90;99.90;;;;;;5052982;28;20064;-49
2024/01/04 07:37:12;;;;;;;0.40;0.40;;;9.80;99.90;;;;;;5053281;28;20527;-50
2024/01/04 07:39:39;;;;;;;0.32;0.30;;;9.90;99.90;;;;;;5052768;28;20025;-47
2024/01/04 07:42:09;;;;;;;0.30;0.30;;;9.90;99.90;;;;;;5052951;28;20431;-52
2024/01/04 07:44:34;;;;;;;1.48;0.40;;;9.80;99.90;;;;;;5051800;28;20385;-51
2024/01/04 07:47:00;;;;;;;0.32;0.30;;;9.80;99.90;;;;;;5034282;28;20029;-47
2024/01/04 07:49:26;;;;;;;1.67;0.30;;;9.80;99.90;;;;;;5051842;28;20107;-48
2024/01/04 07:51:52;;;;;;;0.30;0.30;;;9.80;99.90;;;;;;5052321;28;20025;-51
2024/01/04 07:54:20;;;;;;;2.15;0.50;;;9.80;99.90;;;;;;5052112;28;20032;-48
2024/01/04 07:56:46;;;;;;;1.30;0.40;;;9.80;99.90;;;;;;5052962;28;20088;-47
2024/01/04 07:59:12;;;;;;;0.20;0.20;;;9.80;99.90;;;;;;5053022;28;20057;-49
2024/01/04 08:01:38;;;;;;;0.68;0.68;;;9.80;99.90;;;;;;5054299;28;20488;-51
2024/01/04 08:04:04;;;;;;;0.57;0.30;;;9.70;99.90;;;;;;5055324;28;20032;-49
2024/01/04 08:06:30;;;;;;;1.88;0.52;;;9.70;99.90;;;;;;5055092;28;20443;-46
2024/01/04 08:08:56;;;;;;;0.38;0.30;;;9.70;99.90;;;;;;5054778;28;20047;-53
2024/01/04 08:11:22;;;;;;;0.75;0.40;;;9.70;99.90;;;;;;5054602;28;20489;-51
2024/01/04 08:13:48;;;;;;;1.98;0.30;;;9.70;99.90;;;;;;5054475;28;20389;-47
2024/01/04 08:16:13;;;;;;;0.95;0.30;;;9.70;99.90;;;;;;5054409;28;20025;-47
2024/01/04 08:18:39;;;;;;;0.40;0.40;;;9.70;99.90;;;;;;5054663;28;20028;-48
2024/01/04 08:21:05;;;;;;;0.30;0.25;;;9.80;99.90;;;;;;5036593;28;20021;-50
2024/01/04 08:23:31;;;;;;;0.43;0.43;;;9.70;99.90;;;;;;5054529;28;20024;-47
2024/01/04 08:25:56;;;;;;;0.32;0.30;;;9.70;99.90;;;;;;5054660;28;20322;-49
2024/01/04 08:28:22;;;;;;;1.75;1.13;;;9.70;99.90;;;;;;5054444;28;20407;-50
2024/01/04 08:30:48;;;;;;;1.33;0.57;;;9.70;99.90;;;;;;5054479;28;20029;-50
2024/01/04 08:33:14;;;;;;;0.90;0.43;;;9.70;99.90;;;;;;5054064;28;20105;-48
2024/01/04 08:35:40;;;;;;;0.35;0.35;;;9.70;99.90;;;;;;5055197;28;20056;-45
2024/01/04 08:38:06;;;;;;;0.55;0.40;;;9.80;99.90;;;;;;5036303;28;20030;-50
2024/01/04 08:40:33;;;;;;;1.40;0.38;;;9.70;99.90;;;;;;5054143;28;20021;-45
2024/01/04 08:42:59;;;;;;;1.15;0.55;;;9.80;99.90;;;;;;5054544;28;20021;-49
2024/01/04 08:45:25;;;;;;;2.90;0.35;;;9.80;99.90;;;;;;5054084;28;20028;-49
2024/01/04 08:47:50;;;;;;;0.50;0.50;;;9.80;99.90;;;;;;5053879;28;20040;-52
2024/01/04 08:50:16;;;;;;;1.65;0.30;;;9.90;99.90;;;;;;5054600;28;20047;-49
2024/01/04 08:52:42;;;;;;;0.73;0.38;;;9.80;99.90;;;;;;5053700;28;20040;-48
2024/01/04 08:55:08;;;;;;;0.25;0.25;;;9.80;99.90;;;;;;5055103;28;20531;-48
2024/01/04 08:57:33;;;;;;;1.13;0.38;;;9.80;99.90;;;;;;5054144;28;20020;-52
2024/01/04 08:59:59;;;;;;;0.40;0.40;;;9.80;99.90;;;;;;5053919;28;20024;-45
2024/01/04 09:02:26;;;;;;;3.20;0.40;;;9.80;99.90;;;;;;5053995;28;20025;-45
2024/01/04 09:04:52;;;;;;;0.95;0.32;;;9.80;99.90;;;;;;5053486;28;20021;-48
2024/01/04 09:07:19;;;;;;;0.73;0.63;;;9.70;99.90;;;;;;5053341;28;20031;-47
2024/01/04 09:09:44;;;;;;;0.35;0.35;;;9.70;99.90;;;;;;5053700;28;20486;-46
2024/01/04 09:12:14;;;;;;;0.20;0.20;;;9.70;99.90;;;;;;5053244;28;20087;-52
2024/01/04 09:14:40;;;;;;;0.95;0.82;;;9.70;99.90;;;;;;5053497;28;20119;-45
2024/01/04 09:17:05;;;;;;;0.50;0.50;;;9.70;99.90;;;;;;5054552;28;20049;-46
2024/01/04 09:19:31;;;;;;;0.35;0.35;;;9.70;99.90;;;;;;5053736;28;20032;-44
2024/01/04 09:21:56;;;;;;;0.70;0.30;;;9.70;99.90;;;;;;5053518;28;20025;-49
2024/01/04 09:24:23;;;;;;;0.55;0.30;;;9.80;99.90;;;;;;5053102;28;20029;-48
2024/01/04 09:26:50;;;;;;;0.47;0.40;;;9.70;99.90;;;;;;5035793;28;20387;-48
2024/01/04 09:29:17;;;;;;;2.28;0.60;;;9.70;99.90;;;;;;5054016;28;20021;-47
2024/01/04 09:31:43;;;;;;;2.88;0.57;;;9.70;99.90;;;;;;5035755;28;20025;-49
2024/01/04 09:34:09;;;;;;;2.50;0.60;;;9.70;99.90;;;;;;5051876;28;20048;-49
2024/01/04 09:36:35;;;;;;;1.90;0.68;;;9.70;99.90;;;;;;5052950;28;20484;-47
2024/01/04 09:39:03;;;;;;;1.42;0.40;;;9.70;99.90;;;;;;5052666;28;20025;-49
2024/01/04 09:41:33;;;;;;;1.15;0.93;;;9.70;99.90;;;;;;5052746;28;20017;-46
2024/01/04 09:44:01;;;;;;;0.90;0.57;;;9.70;99.90;;;;;;5052381;28;20086;-50
2024/01/04 09:46:35;;;;;;;1.00;0.60;;;9.70;99.90;;;;;;5053520;28;20495;-49
2024/01/04 09:49:01;;;;;;;2.13;0.45;;;9.70;99.90;;;;;;5052362;28;20051;-49
2024/01/04 09:51:28;;;;;;;2.35;0.70;;;9.70;99.90;;;;;;5052133;28;20194;-49
2024/01/04 09:53:55;;;;;;;2.00;0.70;;;9.80;99.90;;;;;;5052491;28;20076;-50
2024/01/04 09:56:22;;;;;;;2.35;0.85;;;9.80;99.90;;;;;;5052290;28;20052;-48
2024/01/04 09:58:49;;;;;;;3.45;0.68;;;9.90;99.90;;;;;;5053197;28;20037;-49
2024/01/04 10:01:20;;;;;;;2.25;0.70;;;10.00;99.90;;;;;;5052741;28;20049;-51
2024/01/04 10:03:48;;;;;;;2.22;0.60;;;10.00;99.90;;;;;;5052717;28;20021;-54
2024/01/04 10:06:44;;;;;;;1.90;0.68;;;10.10;99.90;;;;;;5053073;28;20066;-51
2024/01/04 10:09:09;;;;;;;1.45;0.60;;;10.10;99.90;;;;;;5049668;28;20412;-50
2024/01/04 10:11:43;;;;;;;2.88;0.55;;;10.10;99.90;;;;;;5052562;28;20033;-51
2024/01/04 10:14:09;;;;;;;2.78;0.63;;;10.10;99.90;;;;;;5052399;28;20068;-48
2024/01/04 10:16:36;;;;;;;3.00;0.80;;;10.10;99.90;;;;;;5053165;28;20041;-50
2024/01/04 10:19:02;;;;;;;0.65;0.50;;;10.10;99.90;;;;;;5052690;28;20021;-52
2024/01/04 10:21:33;;;;;;;3.75;1.20;;;10.10;99.90;;;;;;5052389;28;20080;-49
2024/01/04 10:23:59;;;;;;;1.10;0.60;;;10.10;99.90;;;;;;5051533;28;20017;-49
2024/01/04 10:26:26;;;;;;;0.90;0.80;;;10.20;99.90;;;;;;5051944;28;20025;-53
2024/01/04 10:28:56;;;;;;;2.33;0.70;;;10.20;99.90;;;;;;5034473;28;20102;-49
2024/01/04 10:31:22;;;;;;;3.35;0.70;;;10.10;99.90;;;;;;5034675;28;20515;-49
2024/01/04 10:33:55;;;;;;;5.68;2.03;;;10.10;99.90;;;;;;5052286;28;20037;-49
2024/01/04 10:36:22;;;;;;;2.63;0.73;;;10.10;99.90;;;;;;5052249;28;20020;-52
2024/01/04 10:38:48;;;;;;;2.90;0.93;;;10.10;99.90;;;;;;5052191;28;20025;-51
2024/01/04 10:41:17;;;;;;;5.13;0.70;;;10.10;99.90;;;;;;5052759;28;20025;-59
2024/01/04 10:43:43;;;;;;;1.77;1.55;;;10.10;99.90;;;;;;5052287;28;20059;-47
2024/01/04 10:46:10;;;;;;;3.00;0.80;;;10.10;99.90;;;;;;5053111;28;20025;-48
2024/01/04 10:48:36;;;;;;;1.95;0.70;;;10.00;99.90;;;;;;5051623;28;20123;-50
2024/01/04 10:51:06;;;;;;;0.75;0.70;;;10.00;99.90;;;;;;5052375;28;20107;-48
2024/01/04 10:53:38;;;;;;;4.28;1.23;;;10.10;99.90;;;;;;5033987;28;20029;-50
2024/01/04 10:56:04;;;;;;;5.57;1.38;;;;;;;;;;5064626;28;20455;-49
2024/01/04 10:58:37;;;;;;;0.90;0.73;;;10.00;99.90;;;;;;5070930;28;20036;-48
2024/01/04 11:01:04;;;;;;;2.53;0.80;;;10.10;99.90;;;;;;5071556;28;20388;-48
2024/01/04 11:03:33;;;;;;;4.43;1.20;;;10.10;99.90;;;;;;5052309;28;20480;-47
2024/01/04 11:06:00;;;;;;;2.38;0.98;;;10.20;99.90;;;;;;5051754;28;20082;-49
2024/01/04 11:08:27;;;;;;;5.63;0.98;;;10.20;99.90;;;;;;5051019;28;20029;-46
2024/01/04 11:10:54;;;;;;;1.98;0.90;;;10.30;99.90;;;;;;5033551;28;20021;-51
2024/01/04 11:13:20;;;;;;;7.00;0.85;;;10.30;99.90;;;;;;5050891;28;20037;-47
2024/01/04 11:15:51;;;;;;;8.50;1.30;;;10.30;99.90;;;;;;5050936;28;20079;-48
2024/01/04 11:19:03;;;;;;;7.47;2.88;;;10.30;99.90;;;;;;5052139;28;20036;-47
2024/01/04 11:21:32;;;;;;;2.88;1.00;;;10.30;99.90;;;;;;5051958;28;20040;-49
2024/01/04 11:24:06;;;;;;;4.07;1.13;;;10.40;99.90;;;;;;5051669;28;20029;-49
2024/01/04 11:27:00;;;;;;;6.72;1.15;;;10.40;99.90;;;;;;5051149;28;20017;-50
2024/01/04 11:29:27;;;;;;;3.15;1.00;;;10.50;99.90;;;;;;5028360;28;20106;-46
2024/01/04 11:31:57;;;;;;;3.75;2.00;;;10.50;99.90;;;;;;5051496;28;20122;-50
2024/01/04 11:34:24;;;;;;;6.45;1.35;;;10.60;99.90;;;;;;5051567;28;20029;-47
2024/01/04 11:36:54;;;;;;;6.28;1.23;;;10.70;99.90;;;;;;5054435;28;20033;-45
2024/01/04 11:39:26;;;;;;;6.43;1.80;;;10.80;99.90;;;;;;5058355;28;20040;-49
2024/01/04 11:41:52;;;;;;;7.25;1.30;;;10.90;99.90;;;;;;5036463;28;20025;-47
2024/01/04 11:44:17;;;;;;;8.77;2.17;;;10.90;99.90;;;;;;5054339;28;20557;-50
2024/01/04 11:46:43;;;;;;;5.35;1.77;;;11.00;99.90;;;;;;5055367;28;20488;-50
2024/01/04 11:49:11;;;;;;;9.30;1.58;;;11.10;99.90;;;;;;5037567;28;20056;-48
2024/01/04 11:51:41;;;;;;;7.20;1.77;;;11.20;99.90;;;;;;5037389;28;20071;-49
2024/01/04 11:54:09;;;;;;;5.32;1.92;;;11.20;99.90;;;;;;5054774;28;20416;-48
2024/01/04 11:56:36;;;;;;;7.45;2.00;;;11.20;99.90;;;;;;5055774;28;20032;-49
2024/01/04 11:59:12;;;;;;;9.65;1.65;;;11.10;99.90;;;;;;5054466;28;20095;-50
2024/01/04 12:01:43;;;;;;;8.93;2.95;;;11.00;99.90;;;;;;5035131;28;20021;-50
2024/01/04 12:04:15;;;;;;;9.98;1.50;;;11.00;99.90;;;;;;5054419;28;20025;-48
2024/01/04 12:06:42;;;;;;;9.35;2.00;;;10.90;99.90;;;;;;5054979;28;20025;-48
2024/01/04 12:09:10;;;;;;;5.78;1.20;;;10.90;99.90;;;;;;5054216;28;20068;-50
2024/01/04 12:11:37;;;;;;;6.53;1.50;;;10.80;99.90;;;;;;5054644;28;20120;-47
2024/01/04 12:14:05;;;;;;;4.85;1.38;;;10.80;99.90;;;;;;5054746;28;20029;-45
2024/01/04 12:16:31;;;;;;;7.60;1.60;;;10.80;99.90;;;;;;5055522;28;20083;-50
2024/01/04 12:19:01;;;;;;;6.78;2.30;;;10.70;99.90;;;;;;5055696;28;20546;-51
2024/01/04 12:21:27;;;;;;;5.05;1.10;;;10.70;99.90;;;;;;5054832;28;20460;-50
2024/01/04 12:23:53;;;;;;;6.72;1.35;;;10.60;99.90;;;;;;5054298;28;20249;-48
2024/01/04 12:26:23;;;;;;;5.35;1.10;;;10.60;99.90;;;;;;5054462;28;20029;-50
2024/01/04 12:28:51;;;;;;;6.60;2.08;;;10.60;99.90;;;;;;5054353;28;20412;-50
2024/01/04 12:31:16;;;;;;;4.47;0.90;;;10.50;99.90;;;;;;5054660;28;20048;-47
2024/01/04 12:33:42;;;;;;;3.67;1.00;;;10.50;99.90;;;;;;5054292;28;20514;-48
2024/01/04 12:36:08;;;;;;;2.47;0.98;;;10.60;99.90;;;;;;5054837;28;20519;-47
2024/01/04 12:38:33;;;;;;;4.88;1.35;;;10.60;99.90;;;;;;5054313;28;20032;-47
2024/01/04 12:40:59;;;;;;;2.78;1.10;;;10.60;99.90;;;;;;5036324;28;20021;-49
2024/01/04 12:43:26;;;;;;;1.15;0.60;;;10.50;99.90;;;;;;5053950;28;20052;-48
2024/01/04 12:46:08;;;;;;;2.33;0.93;;;10.40;99.90;;;;;;5054254;28;20044;-48
2024/01/04 12:48:35;;;;;;;5.10;1.00;;;10.40;99.90;;;;;;5052707;28;20440;-48
2024/01/04 12:51:16;;;;;;;4.28;1.08;;;10.30;99.90;;;;;;5054125;28;20021;-49
2024/01/04 12:53:45;;;;;;;3.70;1.33;;;10.30;99.90;;;;;;5053656;28;20037;-47
2024/01/04 12:56:12;;;;;;;9.27;1.17;;;10.30;99.90;;;;;;5053797;28;20025;-50